createdAt,value
2022-10-13T00:01:25.762Z,13.75
2022-10-13T00:03:55.226Z,14.63
2022-10-13T00:06:26.525Z,14.27
2022-10-13T00:08:56.780Z,15.57
2022-10-13T00:11:27.584Z,11.65
2022-10-13T00:13:58.092Z,11.57
2022-10-13T00:16:28.732Z,12.57
2022-10-13T00:18:58.643Z,13.70
2022-10-13T00:21:28.901Z,13.85
2022-10-13T00:23:58.785Z,14.40
2022-10-13T00:26:28.073Z,12.32
2022-10-13T00:28:56.773Z,11.40
2022-10-13T00:31:28.544Z,11.20
2022-10-13T00:33:58.735Z,11.00
2022-10-13T00:36:27.230Z,11.70
2022-10-13T00:38:56.272Z,11.63
2022-10-13T00:41:26.284Z,11.48
2022-10-13T00:43:58.939Z,11.48
2022-10-13T00:46:29.614Z,12.55
2022-10-13T00:49:01.718Z,11.82
2022-10-13T00:51:34.358Z,12.43
2022-10-13T00:54:04.632Z,13.73
2022-10-13T00:56:36.083Z,12.98
2022-10-13T00:59:07.481Z,13.82
2022-10-13T01:01:38.211Z,13.32
2022-10-13T01:04:06.571Z,14.40
2022-10-13T01:06:35.834Z,13.73
2022-10-13T01:09:04.289Z,13.35
2022-10-13T01:11:47.504Z,13.30
2022-10-13T01:14:26.250Z,12.93
2022-10-13T01:17:05.437Z,13.48
2022-10-13T01:20:03.127Z,13.63
2022-10-13T01:22:46.318Z,11.98
2022-10-13T01:25:45.862Z,11.50
2022-10-13T01:28:33.969Z,11.15
2022-10-13T01:31:11.054Z,11.73
2022-10-13T01:33:45.597Z,11.50
2022-10-13T01:36:25.469Z,11.07
2022-10-13T01:39:00.941Z,11.20
2022-10-13T01:41:37.540Z,10.75
2022-10-13T01:44:13.397Z,11.73
2022-10-13T01:46:47.282Z,12.32
2022-10-13T01:49:19.360Z,12.32
2022-10-13T01:51:49.865Z,13.38
2022-10-13T01:54:18.300Z,13.90
2022-10-13T01:56:53.569Z,14.23
2022-10-13T01:59:23.630Z,16.63
2022-10-13T02:02:03.279Z,15.55
2022-10-13T02:04:46.712Z,15.45
2022-10-13T02:07:21.992Z,15.60
2022-10-13T02:09:58.906Z,16.33
2022-10-13T02:12:32.261Z,15.43
2022-10-13T02:15:02.658Z,14.05
2022-10-13T02:17:34.759Z,12.02
2022-10-13T02:20:07.369Z,12.10
2022-10-13T02:22:42.953Z,12.57
2022-10-13T02:25:11.885Z,11.52
2022-10-13T02:27:40.402Z,12.35
2022-10-13T02:30:10.081Z,13.15
2022-10-13T02:32:41.273Z,12.77
2022-10-13T02:35:10.273Z,12.13
2022-10-13T02:37:38.678Z,13.02
2022-10-13T02:40:08.564Z,12.95
2022-10-13T02:42:36.836Z,13.25
2022-10-13T02:45:06.533Z,12.40
2022-10-13T02:47:34.725Z,12.02
2022-10-13T02:50:07.597Z,12.75
2022-10-13T02:52:36.134Z,12.43
2022-10-13T02:55:05.218Z,12.20
2022-10-13T02:57:33.843Z,11.73
2022-10-13T03:00:02.113Z,12.60
2022-10-13T03:02:31.022Z,13.57
2022-10-13T03:04:59.122Z,13.23
2022-10-13T03:07:29.203Z,13.50
2022-10-13T03:09:57.496Z,13.10
2022-10-13T03:12:26.253Z,12.50
2022-10-13T03:14:54.700Z,12.93
2022-10-13T03:17:23.206Z,12.10
2022-10-13T03:19:51.611Z,13.45
2022-10-13T03:22:21.473Z,13.98
2022-10-13T03:24:52.687Z,13.15
2022-10-13T03:27:21.493Z,12.98
2022-10-13T03:29:51.191Z,13.40
2022-10-13T03:32:19.819Z,16.25
2022-10-13T03:34:48.474Z,16.20
2022-10-13T03:37:17.156Z,16.67
2022-10-13T03:39:45.523Z,16.40
2022-10-13T03:42:17.303Z,16.33
2022-10-13T03:44:46.202Z,17.02
2022-10-13T03:47:14.619Z,17.65
2022-10-13T03:49:43.445Z,17.38
2022-10-13T03:52:11.638Z,15.48
2022-10-13T03:54:40.134Z,16.88
2022-10-13T03:57:10.161Z,17.30
2022-10-13T03:59:41.558Z,17.48
2022-10-13T04:02:10.367Z,17.15
2022-10-13T04:04:39.265Z,17.30
2022-10-13T04:07:08.893Z,17.88
2022-10-13T04:09:37.248Z,15.52
2022-10-13T04:12:06.185Z,15.63
2022-10-13T04:14:34.924Z,15.40
2022-10-13T04:17:10.827Z,16.27
2022-10-13T04:19:40.086Z,16.63
2022-10-13T04:22:09.323Z,16.65
2022-10-13T04:24:39.561Z,15.63
2022-10-13T04:27:08.015Z,15.90
2022-10-13T04:29:36.499Z,16.08
2022-10-13T04:32:05.000Z,15.75
2022-10-13T04:34:34.998Z,16.25
2022-10-13T04:37:03.551Z,16.17
2022-10-13T04:39:32.277Z,16.48
2022-10-13T04:42:00.607Z,16.17
2022-10-13T04:44:29.208Z,17.08
2022-10-13T04:46:57.652Z,16.65
2022-10-13T04:49:26.648Z,16.00
2022-10-13T04:51:56.230Z,16.27
2022-10-13T04:54:25.151Z,16.35
2022-10-13T04:56:53.390Z,17.80
2022-10-13T04:59:21.829Z,16.15
2022-10-13T05:01:50.377Z,17.40
2022-10-13T05:04:19.313Z,16.55
2022-10-13T05:07:15.956Z,18.25
2022-10-13T05:09:38.220Z,16.85
2022-10-13T05:12:12.408Z,16.95
2022-10-13T05:14:40.816Z,17.80
2022-10-13T05:17:09.138Z,17.60
2022-10-13T05:19:38.161Z,18.00
2022-10-13T05:22:06.330Z,17.25
2022-10-13T05:24:37.583Z,17.33
2022-10-13T05:27:10.596Z,17.17
2022-10-13T05:29:40.101Z,19.20
2022-10-13T05:32:08.940Z,18.20
2022-10-13T05:34:37.332Z,19.20
2022-10-13T05:37:06.161Z,18.40
2022-10-13T05:39:34.600Z,17.95
2022-10-13T05:42:03.586Z,18.83
2022-10-13T05:44:33.889Z,18.90
2022-10-13T05:47:07.363Z,19.10
2022-10-13T05:49:39.617Z,19.10
2022-10-13T05:52:11.550Z,18.90
2022-10-13T05:54:44.418Z,18.77
2022-10-13T05:57:17.526Z,18.92
2022-10-13T05:59:53.604Z,18.50
2022-10-13T06:02:27.443Z,18.15
2022-10-13T06:04:58.922Z,18.02
2022-10-13T06:07:27.823Z,18.80
2022-10-13T06:09:57.225Z,18.27
2022-10-13T06:12:25.586Z,16.63
2022-10-13T06:14:55.771Z,16.50
2022-10-13T06:17:24.100Z,16.25
2022-10-13T06:19:53.107Z,15.30
2022-10-13T06:22:22.487Z,16.63
2022-10-13T06:24:51.261Z,15.55
2022-10-13T06:27:20.646Z,15.07
2022-10-13T06:30:10.335Z,15.80
2022-10-13T06:32:39.006Z,15.35
2022-10-13T06:35:08.590Z,16.38
2022-10-13T06:37:37.141Z,15.85
2022-10-13T06:40:06.511Z,17.23
2022-10-13T06:42:35.056Z,14.77
2022-10-13T06:45:13.562Z,15.52
2022-10-13T06:47:42.228Z,14.82
2022-10-13T06:50:11.533Z,16.05
2022-10-13T06:52:40.921Z,14.80
2022-10-13T06:55:09.951Z,15.15
2022-10-13T06:57:38.327Z,15.85
2022-10-13T07:00:10.926Z,16.30
2022-10-13T07:02:41.275Z,16.80
2022-10-13T07:05:10.340Z,15.82
2022-10-13T07:07:38.802Z,17.40
2022-10-13T07:10:08.039Z,16.92
2022-10-13T07:12:36.384Z,18.05
2022-10-13T07:15:05.018Z,17.20
2022-10-13T07:17:33.730Z,17.45
2022-10-13T07:20:07.181Z,17.52
2022-10-13T07:22:36.102Z,17.40
2022-10-13T07:25:05.094Z,17.65
2022-10-13T07:27:33.894Z,16.30
2022-10-13T07:30:02.676Z,16.13
2022-10-13T07:32:32.464Z,15.43
2022-10-13T07:35:05.405Z,16.15
2022-10-13T07:37:36.591Z,15.93
2022-10-13T07:40:06.898Z,15.98
2022-10-13T07:42:35.798Z,16.33
2022-10-13T07:45:08.736Z,16.52
2022-10-13T07:47:37.407Z,17.08
2022-10-13T07:50:13.050Z,15.68
2022-10-13T07:52:41.704Z,16.42
2022-10-13T07:55:14.083Z,16.80
2022-10-13T07:57:42.698Z,18.75
2022-10-13T08:00:12.862Z,17.50
2022-10-13T08:02:41.637Z,17.20
2022-10-13T08:05:11.521Z,17.50
2022-10-13T08:07:40.427Z,19.00
2022-10-13T08:10:13.292Z,17.23
2022-10-13T08:12:42.054Z,16.60
2022-10-13T08:15:12.357Z,16.27
2022-10-13T08:17:41.394Z,16.73
2022-10-13T08:20:12.173Z,15.40
2022-10-13T08:22:40.806Z,16.33
2022-10-13T08:25:10.729Z,16.10
2022-10-13T08:27:50.804Z,15.73
2022-10-13T08:30:20.903Z,15.48
2022-10-13T08:32:50.171Z,15.45
2022-10-13T08:35:20.261Z,15.63
2022-10-13T08:37:48.866Z,15.88
2022-10-13T08:40:23.274Z,14.85
2022-10-13T08:42:58.001Z,15.60
2022-10-13T08:45:46.945Z,14.73
2022-10-13T08:48:19.525Z,16.15
2022-10-13T08:50:52.551Z,17.15
2022-10-13T08:53:28.222Z,16.55
2022-10-13T08:55:59.332Z,15.85
2022-10-13T08:58:31.320Z,16.23
2022-10-13T09:01:11.591Z,17.15
2022-10-13T09:03:50.459Z,17.40
2022-10-13T09:06:28.350Z,16.25
2022-10-13T09:08:59.745Z,16.10
2022-10-13T09:11:29.442Z,16.45
2022-10-13T09:14:00.176Z,16.80
2022-10-13T09:16:31.108Z,16.05
2022-10-13T09:19:18.721Z,17.08
2022-10-13T09:21:48.515Z,18.05
2022-10-13T09:24:18.390Z,17.42
2022-10-13T09:26:48.592Z,16.85
2022-10-13T09:29:20.198Z,17.33
2022-10-13T09:31:49.088Z,16.90
2022-10-13T09:34:25.167Z,17.60
2022-10-13T09:37:03.932Z,18.67
2022-10-13T09:39:33.396Z,17.88
2022-10-13T09:42:22.301Z,18.48
2022-10-13T09:45:01.836Z,18.58
2022-10-13T09:47:33.289Z,17.33
2022-10-13T09:50:15.804Z,18.52
2022-10-13T09:52:47.158Z,17.88
2022-10-13T09:55:34.306Z,18.33
2022-10-13T09:58:07.752Z,17.55
2022-10-13T10:00:38.666Z,17.63
2022-10-13T10:03:12.522Z,17.70
2022-10-13T10:05:48.542Z,17.25
2022-10-13T10:08:33.547Z,17.42
2022-10-13T10:11:13.297Z,18.50
2022-10-13T10:13:42.085Z,19.52
2022-10-13T10:16:15.726Z,18.67
2022-10-13T10:18:49.396Z,19.35
2022-10-13T10:21:27.188Z,19.38
2022-10-13T10:24:05.044Z,20.20
2022-10-13T10:26:46.293Z,21.05
2022-10-13T10:29:27.346Z,22.63
2022-10-13T10:32:10.899Z,22.67
2022-10-13T10:34:47.362Z,23.00
2022-10-13T10:37:25.207Z,23.42
2022-10-13T10:40:07.982Z,23.50
2022-10-13T10:42:55.648Z,23.17
2022-10-13T10:45:27.836Z,21.25
2022-10-13T10:48:00.784Z,20.95
2022-10-13T10:50:33.321Z,21.23
2022-10-13T10:53:07.318Z,20.13
2022-10-13T10:55:48.229Z,19.67
2022-10-13T10:58:27.411Z,18.70
2022-10-13T11:01:06.750Z,18.55
2022-10-13T11:03:49.662Z,18.33
2022-10-13T11:06:26.189Z,17.27
2022-10-13T11:08:55.694Z,18.48
2022-10-13T11:11:42.575Z,18.27
2022-10-13T11:14:31.929Z,18.15
2022-10-13T11:17:11.457Z,17.23
2022-10-13T11:19:40.889Z,17.48
2022-10-13T11:22:24.648Z,16.75
2022-10-13T11:24:56.669Z,16.33
2022-10-13T11:27:40.312Z,15.77
2022-10-13T11:30:44.421Z,16.20
2022-10-13T11:33:53.061Z,15.63
2022-10-13T11:36:56.077Z,15.32
2022-10-13T11:40:01.725Z,15.77
2022-10-13T11:43:14.947Z,13.38
2022-10-13T11:46:14.326Z,14.68
2022-10-13T11:49:05.085Z,13.55
2022-10-13T11:51:53.061Z,14.48
2022-10-13T11:54:31.577Z,15.35
2022-10-13T11:57:00.241Z,14.43
2022-10-13T11:59:31.148Z,13.15
2022-10-13T12:02:12.484Z,13.48
2022-10-13T12:04:46.562Z,12.57
2022-10-13T12:07:16.946Z,13.55
2022-10-13T12:09:52.915Z,12.40
2022-10-13T12:12:24.775Z,12.50
2022-10-13T12:15:04.259Z,12.50
2022-10-13T12:17:40.295Z,12.32
2022-10-13T12:20:22.760Z,12.45
2022-10-13T12:22:51.867Z,13.43
2022-10-13T12:25:21.764Z,13.48
2022-10-13T12:27:56.398Z,14.52
2022-10-13T12:30:27.043Z,14.23
2022-10-13T12:32:58.903Z,12.75
2022-10-13T12:35:29.266Z,12.50
2022-10-13T12:37:58.621Z,12.73
2022-10-13T12:40:27.906Z,12.73
2022-10-13T12:42:56.650Z,12.30
2022-10-13T12:45:28.676Z,13.13
2022-10-13T12:47:58.600Z,13.68
2022-10-13T12:50:44.756Z,13.27
2022-10-13T12:53:19.824Z,15.38
2022-10-13T12:55:55.226Z,15.00
2022-10-13T12:58:27.895Z,14.63
2022-10-13T13:01:05.957Z,13.77
2022-10-13T13:03:38.769Z,13.98
2022-10-13T13:06:26.936Z,14.55
2022-10-13T13:09:22.786Z,14.23
2022-10-13T13:12:21.843Z,14.38
2022-10-13T13:14:53.571Z,14.48
2022-10-13T13:17:53.285Z,14.93
2022-10-13T13:20:23.712Z,13.80
2022-10-13T13:22:52.039Z,13.48
2022-10-13T13:25:20.638Z,14.98
2022-10-13T13:27:50.055Z,14.70
2022-10-13T13:30:21.092Z,14.05
2022-10-13T13:32:50.252Z,14.57
2022-10-13T13:35:18.699Z,13.15
2022-10-13T13:37:50.824Z,13.35
2022-10-13T13:40:23.447Z,13.10
2022-10-13T13:42:51.988Z,13.23
2022-10-13T13:45:22.297Z,12.45
2022-10-13T13:47:51.370Z,13.40
2022-10-13T13:50:24.067Z,13.07
2022-10-13T13:53:00.289Z,12.93
2022-10-13T13:55:30.115Z,12.70
2022-10-13T13:57:59.059Z,13.15
2022-10-13T14:00:27.994Z,13.10
2022-10-13T14:02:57.072Z,12.63
2022-10-13T14:05:28.592Z,12.60
2022-10-13T14:07:58.013Z,13.00
2022-10-13T14:10:30.436Z,13.27
2022-10-13T14:12:58.901Z,13.10
2022-10-13T14:15:29.899Z,13.10
2022-10-13T14:17:58.741Z,13.13
2022-10-13T14:20:27.255Z,13.73
2022-10-13T14:22:55.672Z,12.80
2022-10-13T14:25:24.276Z,13.25
2022-10-13T14:27:54.001Z,13.48
2022-10-13T14:30:22.568Z,14.32
2022-10-13T14:32:50.946Z,13.43
2022-10-13T14:35:19.797Z,14.45
2022-10-13T14:37:48.326Z,14.35
2022-10-13T14:40:17.060Z,14.13
2022-10-13T14:42:58.944Z,14.05
2022-10-13T14:45:30.743Z,15.13
2022-10-13T14:47:59.569Z,14.63
2022-10-13T14:50:28.429Z,13.00
2022-10-13T14:52:57.042Z,13.07
2022-10-13T14:55:32.989Z,13.73
2022-10-13T14:58:10.690Z,12.48
2022-10-13T15:00:41.204Z,13.52
2022-10-13T15:03:11.381Z,13.38
2022-10-13T15:05:40.285Z,14.80
2022-10-13T15:08:18.598Z,15.32
2022-10-13T15:10:50.838Z,14.43
2022-10-13T15:13:21.604Z,14.32
2022-10-13T15:15:51.148Z,13.93
2022-10-13T15:18:19.772Z,14.73
2022-10-13T15:20:49.246Z,15.18
2022-10-13T15:23:18.650Z,16.23
2022-10-13T15:25:52.218Z,16.63
2022-10-13T15:28:24.929Z,15.73
2022-10-13T15:30:53.755Z,15.95
2022-10-13T15:33:23.627Z,15.25
2022-10-13T15:35:53.049Z,17.10
2022-10-13T15:38:22.785Z,16.65
2022-10-13T15:40:52.101Z,17.10
2022-10-13T15:43:23.344Z,16.27
2022-10-13T15:46:00.396Z,16.63
2022-10-13T15:48:29.392Z,17.90
2022-10-13T15:50:58.169Z,17.48
2022-10-13T15:53:27.049Z,17.27
2022-10-13T15:55:55.919Z,16.90
2022-10-13T15:58:24.763Z,16.48
2022-10-13T16:01:08.537Z,17.30
2022-10-13T16:03:39.136Z,18.15
2022-10-13T16:06:10.559Z,18.23
2022-10-13T16:08:45.815Z,18.50
2022-10-13T16:11:17.064Z,18.20
2022-10-13T16:13:47.769Z,18.50
2022-10-13T16:16:18.081Z,18.63
2022-10-13T16:18:47.212Z,18.88
2022-10-13T16:21:19.032Z,19.48
2022-10-13T16:23:53.598Z,18.90
2022-10-13T16:26:26.404Z,18.75
2022-10-13T16:28:56.025Z,20.27
2022-10-13T16:31:26.593Z,19.48
2022-10-13T16:33:56.137Z,22.27
2022-10-13T16:36:25.423Z,24.17
2022-10-13T16:38:56.888Z,20.55
2022-10-13T16:41:25.978Z,19.88
2022-10-13T16:43:54.545Z,20.52
2022-10-13T16:46:23.211Z,19.02
2022-10-13T16:48:52.838Z,22.10
2022-10-13T16:51:23.082Z,20.95
2022-10-13T16:54:03.578Z,21.95
2022-10-13T16:56:34.687Z,21.02
2022-10-13T16:59:05.502Z,22.40
2022-10-13T17:01:35.297Z,21.60
2022-10-13T17:04:05.842Z,21.88
2022-10-13T17:06:39.894Z,20.83
2022-10-13T17:09:08.479Z,22.65
2022-10-13T17:11:37.608Z,21.38
2022-10-13T17:14:07.012Z,20.70
2022-10-13T17:16:36.029Z,20.67
2022-10-13T17:19:06.787Z,21.00
2022-10-13T17:21:37.628Z,20.50
2022-10-13T17:24:08.983Z,20.48
2022-10-13T17:26:42.213Z,20.73
2022-10-13T17:29:10.723Z,19.60
2022-10-13T17:31:51.494Z,20.75
2022-10-13T17:34:24.857Z,22.20
2022-10-13T17:36:53.566Z,21.48
2022-10-13T17:39:22.040Z,20.77
2022-10-13T17:41:53.314Z,19.23
2022-10-13T17:44:27.581Z,21.58
2022-10-13T17:46:56.267Z,18.83
2022-10-13T17:49:29.043Z,18.00
2022-10-13T17:52:00.032Z,19.35
2022-10-13T17:54:28.398Z,20.08
2022-10-13T17:56:57.933Z,19.17
2022-10-13T17:59:26.662Z,19.35
2022-10-13T18:01:59.148Z,17.98
2022-10-13T18:04:29.941Z,19.23
2022-10-13T18:06:58.313Z,18.65
2022-10-13T18:09:27.670Z,19.02
2022-10-13T18:11:56.290Z,19.40
2022-10-13T18:14:26.072Z,18.45
2022-10-13T18:16:55.274Z,17.98
2022-10-13T18:19:24.667Z,19.13
2022-10-13T18:21:56.353Z,18.40
2022-10-13T18:24:25.635Z,20.00
2022-10-13T18:26:56.115Z,19.63
2022-10-13T18:29:27.541Z,17.77
2022-10-13T18:31:57.328Z,19.38
2022-10-13T18:34:26.638Z,18.70
2022-10-13T18:37:01.724Z,19.20
2022-10-13T18:39:35.172Z,19.70
2022-10-13T18:42:06.848Z,18.30
2022-10-13T18:44:38.236Z,19.17
2022-10-13T18:47:07.374Z,18.92
2022-10-13T18:49:35.804Z,18.77
2022-10-13T18:52:06.661Z,18.33
2022-10-13T18:54:39.466Z,18.83
2022-10-13T18:57:08.302Z,19.73
2022-10-13T18:59:38.742Z,19.20
2022-10-13T19:02:08.140Z,20.30
2022-10-13T19:04:37.192Z,18.27
2022-10-13T19:07:07.152Z,19.05
2022-10-13T19:09:35.901Z,18.60
2022-10-13T19:12:04.479Z,18.42
2022-10-13T19:14:34.127Z,19.67
2022-10-13T19:17:02.680Z,17.95
2022-10-13T19:19:32.201Z,18.25
2022-10-13T19:22:02.264Z,19.40
2022-10-13T19:24:32.578Z,20.20
2022-10-13T19:27:01.420Z,18.75
2022-10-13T19:29:30.674Z,16.75
2022-10-13T19:31:59.333Z,14.02
2022-10-13T19:34:29.343Z,11.40
2022-10-13T19:37:00.113Z,9.60
2022-10-13T19:39:28.975Z,7.95
2022-10-13T19:41:59.226Z,9.60
2022-10-13T19:44:30.071Z,8.65
2022-10-13T19:47:03.099Z,8.10
2022-10-13T19:49:34.974Z,8.60
2022-10-13T19:52:03.570Z,8.75
2022-10-13T19:54:51.248Z,8.70
2022-10-13T19:57:24.236Z,8.95
2022-10-13T19:59:52.698Z,8.75
2022-10-13T20:02:21.082Z,9.55
2022-10-13T20:04:49.333Z,8.65
2022-10-13T20:07:18.112Z,9.02
2022-10-13T20:09:46.794Z,8.20
2022-10-13T20:12:15.537Z,8.70
2022-10-13T20:14:49.687Z,6.93
2022-10-13T20:17:20.604Z,7.18
2022-10-13T20:19:49.357Z,7.32
2022-10-13T20:22:17.700Z,6.80
2022-10-13T20:24:46.496Z,7.03
2022-10-13T20:27:14.958Z,8.07
2022-10-13T20:29:44.636Z,8.27
2022-10-13T20:32:18.585Z,8.20
2022-10-13T20:34:47.878Z,8.77
2022-10-13T20:37:16.980Z,8.55
2022-10-13T20:40:06.565Z,8.32
2022-10-13T20:42:36.068Z,8.68
2022-10-13T20:45:09.035Z,8.32
2022-10-13T20:47:39.471Z,11.13
2022-10-13T20:50:09.593Z,11.60
2022-10-13T20:52:39.554Z,11.40
2022-10-13T20:55:11.712Z,10.10
2022-10-13T20:57:41.569Z,10.10
2022-10-13T21:00:11.585Z,9.70
2022-10-13T21:02:41.854Z,8.77
2022-10-13T21:05:11.162Z,8.57
2022-10-13T21:07:44.189Z,8.50
2022-10-13T21:10:13.204Z,8.73
2022-10-13T21:12:42.026Z,8.05
2022-10-13T21:15:16.423Z,8.05
2022-10-13T21:17:55.286Z,7.85
2022-10-13T21:20:34.284Z,8.20
2022-10-13T21:23:07.912Z,7.88
2022-10-13T21:25:42.711Z,8.65
2022-10-13T21:28:12.573Z,8.02
2022-10-13T21:30:42.011Z,7.70
2022-10-13T21:33:12.195Z,7.88
2022-10-13T21:35:43.055Z,7.97
2022-10-13T21:38:12.182Z,8.18
2022-10-13T21:40:42.924Z,8.80
2022-10-13T21:43:14.755Z,8.75
2022-10-13T21:45:43.802Z,8.48
2022-10-13T21:48:13.696Z,9.40
2022-10-13T21:50:42.998Z,8.77
2022-10-13T21:53:11.715Z,8.80
2022-10-13T21:55:43.350Z,9.65
2022-10-13T21:58:11.846Z,9.20
2022-10-13T22:00:40.867Z,9.15
2022-10-13T22:03:41.956Z,10.05
2022-10-13T22:06:18.456Z,9.38
2022-10-13T22:08:50.030Z,10.30
2022-10-13T22:11:23.846Z,11.00
2022-10-13T22:13:52.611Z,10.35
2022-10-13T22:16:23.292Z,10.82
2022-10-13T22:18:55.076Z,12.02
2022-10-13T22:21:25.793Z,10.98
2022-10-13T22:23:57.810Z,10.77
2022-10-13T22:26:26.897Z,11.15
2022-10-13T22:28:55.659Z,10.43
2022-10-13T22:31:24.160Z,11.10
2022-10-13T22:33:54.543Z,11.27
2022-10-13T22:36:24.800Z,11.85
2022-10-13T22:38:55.231Z,11.27
2022-10-13T22:41:24.052Z,11.40
2022-10-13T22:43:54.530Z,11.10
2022-10-13T22:46:25.072Z,11.10
2022-10-13T22:48:56.186Z,11.02
2022-10-13T22:51:26.289Z,12.27
2022-10-13T22:53:55.008Z,11.98
2022-10-13T22:56:25.816Z,10.88
2022-10-13T22:58:55.917Z,11.82
2022-10-13T23:01:26.053Z,11.75
2022-10-13T23:03:58.555Z,11.07
2022-10-13T23:06:28.954Z,11.75
2022-10-13T23:09:01.508Z,11.65
2022-10-13T23:11:30.457Z,11.73
2022-10-13T23:13:59.005Z,11.25
2022-10-13T23:16:28.139Z,11.35
2022-10-13T23:18:57.876Z,12.52
2022-10-13T23:21:28.138Z,11.27
2022-10-13T23:23:57.257Z,11.02
2022-10-13T23:26:25.930Z,11.80
2022-10-13T23:28:54.818Z,12.05
2022-10-13T23:31:23.542Z,12.20
2022-10-13T23:33:52.173Z,11.27
2022-10-13T23:36:24.744Z,11.52
2022-10-13T23:38:58.889Z,11.60
2022-10-13T23:41:27.859Z,10.73
2022-10-13T23:43:56.546Z,10.88
2022-10-13T23:46:24.909Z,10.95
2022-10-13T23:48:53.542Z,10.85
2022-10-13T23:51:25.356Z,11.18
2022-10-13T23:53:53.971Z,11.25
2022-10-13T23:56:22.539Z,11.45
2022-10-13T23:58:50.921Z,11.38
